Aeroporto :







RITROVATECI SU...

 
LOGIN :

Iscrizione | Disclaimer

   EN    FR    IT 

 









Sommario :    VFR   VFR Marginale   IFR   IFR Intensivo   IFR Molto Intensivo
Visibilità : 
Base nubi : 
>= 8 km
>= 3000ft
5 / 8 km
1000 / 3000 ft
1500m / 5 km
500 / 1000 ft
800 / 1500m
200 / 500 ft
< 800m
< 200 ft
Simboli :   Temporali  Nebbia  Neve Forte  Precipitazioni Forti  Vento > 20 kt






- Altitudine del aeroporto : 787 ft
- Codice IATA : RUT


KRUT - Rutland - Southern Vermont Regional

ULTIMO METAR :
  • 230156Z AUTO 22006KT 10SM SCT039 01/M07 A3014 RMK AO2 SLP211 T00061067 FZRANO $

METARs OBSOLETI :
  • 230056Z AUTO VRB03KT 10SM CLR M01/M06 A3013 RMK AO2 SLP205 T10111061 FZRANO $
  • 222356Z AUTO 00000KT 10SM CLR 00/M07 A3012 RMK AO2 SLP203 T00001067 10028 21006 53014 FZRANO $

TAF KRUT
Valido dal 23 a 00 ore il 24 a 00 ore UTC


222320Z 2300/2324 24006KT P6SM FEW150
FM230600 VRB04KT P6SM FEW200
FM231500 24005KT P6SM FEW250



MetMap, La meteo Aeronautica in un colpo d'occhio ! - Copyright ORBIFLY Dicembre 2007 - Disclaimer

ORBIFLY MET'MAP TEAM :

Programmazione e sviluppo : Alexandra Zaïnal
Concezione : Baudouin d'Aumeries
Aiuto per la programmazione : Marc-Olivier Méhu
Supporto tecnico e logistico : Manuel Goepfert
Aiuto per la traduzione : Arnaldo La Scala

Contatto : metmap@orbifly.com




FONTI E CREDITI :

   NOAA